Time;durP1;ratioP1;P1;durP2;ratioP2;P2;SDS_P1;SDS_P2;PMS_P1;PMS_P2;Temp;Humidity;BMP_temperature;BMP_pressure;BME280_temperature;BME280_humidity;BME280_pressure;Samples;Min_cycle;Max_cycle;Signal;HPM_P1;HPM_P2
2023/01/28 00:00:48;;;;;;;;;29.33;24.33;;;;;5.87;66.00;102621.53;5140426;27;45391;-63
2023/01/28 00:03:14;;;;;;;;;33.33;24.67;;;;;5.68;65.72;102586.16;5138386;27;45388;-63
2023/01/28 00:05:40;;;;;;;;;27.00;24.00;;;;;5.73;65.95;102597.63;5140203;27;45333;-63
2023/01/28 00:08:05;;;;;;;;;28.33;23.67;;;;;5.93;65.82;102624.31;5140248;27;46103;-62
2023/01/28 00:10:30;;;;;;;;;35.67;28.00;;;;;5.89;65.30;102617.22;5139933;27;45402;-63
2023/01/28 00:12:56;;;;;;;;;29.67;25.00;;;;;5.73;66.07;102581.94;5140296;27;45301;-63
2023/01/28 00:15:21;;;;;;;;;25.00;21.67;;;;;5.88;65.65;102611.94;5139663;27;45335;-63
2023/01/28 00:17:47;;;;;;;;;34.00;26.67;;;;;5.92;65.75;102630.41;5139926;27;46892;-63
2023/01/28 00:20:12;;;;;;;;;24.67;22.00;;;;;5.85;65.69;102607.53;5139732;27;45321;-62
2023/01/28 00:22:37;;;;;;;;;36.33;30.33;;;;;5.95;65.81;102632.19;5138780;27;45621;-63
2023/01/28 00:25:03;;;;;;;;;25.00;24.00;;;;;5.92;65.75;102625.16;5140228;27;45369;-63
2023/01/28 00:27:29;;;;;;;;;37.00;21.00;;;;;5.96;65.44;102635.69;5136506;27;46576;-63
2023/01/28 00:29:55;;;;;;;;;31.33;23.33;;;;;5.86;65.24;102609.28;5139946;27;45242;-63
2023/01/28 00:32:20;;;;;;;;;29.67;24.00;;;;;5.87;65.98;102613.69;5139927;27;45402;-63
2023/01/28 00:34:45;;;;;;;;;28.33;21.67;;;;;5.73;65.75;102589.78;5140181;27;45484;-62
2023/01/28 00:37:11;;;;;;;;;39.00;27.33;;;;;5.97;65.58;102621.75;5139701;27;46416;-63
2023/01/28 00:39:36;;;;;;;;;32.33;21.67;;;;;5.91;65.50;102610.31;5139780;27;45399;-62
2023/01/28 00:42:01;;;;;;;;;33.67;25.67;;;;;5.91;65.40;102626.00;5139991;27;45501;-63
2023/01/28 00:44:27;;;;;;;;;23.67;21.00;;;;;5.88;65.55;102628.53;5138581;27;45296;-62
2023/01/28 00:46:52;;;;;;;;;30.00;27.67;;;;;5.84;66.06;102626.69;5139512;27;46725;-62
2023/01/28 00:49:17;;;;;;;;;31.00;24.67;;;;;5.91;65.87;102622.47;5139780;27;45364;-63
2023/01/28 00:51:43;;;;;;;;;32.33;25.67;;;;;5.95;65.87;102626.94;5139474;27;45809;-63
2023/01/28 00:54:12;;;;;;;;;24.67;22.00;;;;;5.95;65.82;102618.22;5139980;27;45450;-63
2023/01/28 00:56:37;;;;;;;;;27.67;22.67;;;;;6.04;65.66;102636.81;5139618;27;46328;-63
2023/01/28 00:59:03;;;;;;;;;24.67;20.00;;;;;6.04;65.74;102623.72;5139376;27;45206;-62
2023/01/28 01:01:28;;;;;;;;;34.67;26.00;;;;;6.06;65.71;102629.91;5138163;27;45546;-63
2023/01/28 01:04:01;;;;;;;;;35.00;28.00;;;;;6.07;66.14;102632.56;5139844;27;45369;-63
2023/01/28 01:06:45;;;;;;;;;32.67;27.00;;;;;6.09;66.05;102632.59;5139260;27;45678;-63
2023/01/28 01:09:11;;;;;;;;;40.67;26.67;;;;;5.98;65.87;102607.88;5139069;27;45887;-62
2023/01/28 01:11:36;;;;;;;;;27.00;23.00;;;;;6.08;66.01;102625.59;5139184;27;45327;-63
2023/01/28 01:14:04;;;;;;;;;42.00;31.00;;;;;6.09;66.30;102625.63;5139376;27;45488;-63
2023/01/28 01:16:32;;;;;;;;;27.67;25.00;;;;;6.10;66.21;102629.16;5139184;27;46691;-63
2023/01/28 01:18:58;;;;;;;;;36.00;29.00;;;;;6.07;66.04;102637.78;5137638;27;45386;-63
2023/01/28 01:21:26;;;;;;;;;31.00;24.67;;;;;5.98;66.26;102620.97;5139188;27;45570;-63
2023/01/28 01:23:52;;;;;;;;;39.00;30.67;;;;;6.05;66.08;102625.50;5139462;27;45491;-63
2023/01/28 01:26:18;;;;;;;;;30.33;26.00;;;;;6.01;66.40;102629.78;5138896;27;45440;-63
2023/01/28 01:28:43;;;;;;;;;45.67;30.67;;;;;5.95;66.11;102616.50;5137881;27;45281;-63
2023/01/28 01:31:14;;;;;;;;;30.33;25.67;;;;;6.01;66.51;102634.13;5139197;27;45220;-63
2023/01/28 01:33:46;;;;;;;;;47.00;29.33;;;;;6.06;66.57;102636.00;5139159;27;45455;-63
2023/01/28 01:36:13;;;;;;;;;34.33;22.33;;;;;6.05;66.37;102634.22;5136794;27;46130;-63
2023/01/28 01:38:39;;;;;;;;;35.33;29.00;;;;;6.07;66.46;102634.28;5138918;27;45456;-63
2023/01/28 01:41:06;;;;;;;;;38.67;27.00;;;;;5.79;66.48;102590.78;5139011;27;45420;-63
2023/01/28 01:43:47;;;;;;;;;29.33;25.67;;;;;6.04;66.42;102640.31;5139179;27;45428;-63
2023/01/28 01:46:16;;;;;;;;;30.00;25.00;;;;;6.06;66.92;102635.13;5138804;27;46065;-63
2023/01/28 01:48:42;;;;;;;;;35.67;28.67;;;;;6.05;66.62;102636.84;5138569;27;45413;-63
2023/01/28 01:51:17;;;;;;;;;27.00;23.00;;;;;6.04;66.77;102640.31;5137646;27;45495;-63
2023/01/28 01:53:47;;;;;;;;;29.33;27.00;;;;;6.05;66.68;102644.69;5097734;27;45330;-63
2023/01/28 01:56:17;;;;;;;;;34.00;26.00;;;;;6.03;67.05;102640.28;5097319;27;45271;-63
2023/01/28 01:58:47;;;;;;;;;33.33;24.67;;;;;6.05;66.76;102654.28;5097290;27;45541;-63
2023/01/28 02:01:13;;;;;;;;;37.00;24.00;;;;;6.03;66.86;102650.75;5096903;27;45211;-63
2023/01/28 02:04:04;;;;;;;;;30.33;23.00;;;;;5.99;67.07;102644.53;5097535;27;45529;-63
2023/01/28 02:06:31;;;;;;;;;33.00;22.67;;;;;6.01;67.17;102642.88;5096966;27;46349;-63
2023/01/28 02:08:57;;;;;;;;;30.67;26.00;;;;;6.01;67.08;102648.09;5136542;27;45370;-63
2023/01/28 02:11:31;;;;;;;;;31.67;23.00;;;;;6.00;67.10;102650.63;5138406;27;45425;-63
2023/01/28 02:14:00;;;;;;;;;34.67;26.00;;;;;6.00;67.00;102654.16;5138690;27;45521;-63
2023/01/28 02:16:27;;;;;;;;;32.33;23.67;;;;;5.96;67.17;102647.03;5136702;27;46205;-63
2023/01/28 02:18:53;;;;;;;;;22.67;22.00;;;;;6.00;67.24;102655.88;5138433;27;45346;-63
2023/01/28 02:21:24;;;;;;;;;29.00;25.67;;;;;5.98;67.22;102654.94;5138264;27;45894;-63
2023/01/28 02:24:07;;;;;;;;;27.33;22.33;;;;;5.93;67.43;102658.28;5138573;27;45435;-63
2023/01/28 02:26:57;;;;;;;;;25.33;21.67;;;;;5.95;67.49;102658.31;5136434;27;46781;-63
2023/01/28 02:29:37;;;;;;;;;25.33;20.67;;;;;5.95;67.45;102654.84;5138399;27;45385;-64
2023/01/28 02:32:07;;;;;;;;;19.33;16.67;;;;;5.95;67.35;102655.72;5137991;27;45395;-63
2023/01/28 02:34:38;;;;;;;;;24.67;21.00;;;;;5.95;67.57;102657.44;5138597;27;45280;-63
2023/01/28 02:37:25;;;;;;;;;24.33;18.33;;;;;5.93;67.88;102655.66;5137787;27;45453;-63
2023/01/28 02:39:55;;;;;;;;;24.33;22.33;;;;;5.96;67.24;102656.63;5140341;27;45306;-63
2023/01/28 02:42:26;;;;;;;;;30.67;25.00;;;;;5.98;67.57;102654.94;5142013;27;45385;-63
2023/01/28 02:44:51;;;;;;;;;32.00;24.00;;;;;5.83;67.71;102632.75;5140382;27;45378;-63
2023/01/28 02:50:04;;;;;;;;;30.33;23.67;;;;;5.98;67.69;102652.34;5141532;27;45397;-63
2023/01/28 02:55:56;;;;;;;;;32.33;25.33;;;;;5.91;67.66;102643.41;5141187;27;45416;-63
2023/01/28 02:58:21;;;;;;;;;29.33;21.33;;;;;5.96;67.65;102647.03;5141272;27;45450;-63
2023/01/28 03:01:01;;;;;;;;;28.00;23.33;;;;;5.87;67.59;102636.34;5141483;27;45429;-63
2023/01/28 03:03:34;;;;;;;;;30.00;20.67;;;;;5.95;67.58;102649.59;5139670;27;45378;-63
2023/01/28 03:06:06;;;;;;;;;29.00;23.33;;;;;5.93;67.24;102657.41;5141690;27;45264;-63
2023/01/28 03:36:49;;;;;;;;;30.33;19.67;;;;;5.75;67.37;102663.91;5138823;27;45357;-63
2023/01/28 03:39:21;;;;;;;;;32.00;20.00;;;;;5.78;67.65;102670.97;5140823;27;45425;-63
2023/01/28 03:42:02;;;;;;;;;23.00;22.67;;;;;5.78;67.45;102677.88;5140610;27;45690;-63
2023/01/28 03:47:12;;;;;;;;;26.67;21.67;;;;;5.81;67.96;102675.34;5140786;27;45412;-63
2023/01/28 03:49:40;;;;;;;;;31.33;19.00;;;;;5.75;67.38;102671.75;5140894;27;45233;-63
2023/01/28 03:52:05;;;;;;;;;28.00;22.33;;;;;5.72;67.65;102676.88;5137958;27;46353;-63
2023/01/28 03:54:31;;;;;;;;;26.67;19.33;;;;;5.73;67.72;102680.38;5140303;27;45383;-63
2023/01/28 03:56:56;;;;;;;;;29.00;17.67;;;;;5.64;67.34;102665.31;5140821;27;45341;-63
2023/01/28 03:59:21;;;;;;;;;31.67;24.00;;;;;5.66;67.94;102678.44;5140787;27;45708;-63
2023/01/28 04:01:49;;;;;;;;;26.00;22.33;;;;;5.65;67.75;102674.03;5140315;27;46255;-63
2023/01/28 04:04:21;;;;;;;;;31.67;23.33;;;;;5.71;67.64;102677.72;5140436;27;45436;-63
2023/01/28 04:06:47;;;;;;;;;27.67;25.33;;;;;5.63;67.55;102666.16;5140466;27;45449;-63
2023/01/28 04:09:13;;;;;;;;;36.33;25.33;;;;;5.65;67.97;102674.94;5138471;27;45332;-63
2023/01/28 04:11:38;;;;;;;;;34.67;27.00;;;;;5.66;67.72;102683.66;5139840;27;45488;-63
2023/01/28 04:14:04;;;;;;;;;26.33;24.33;;;;;5.66;67.81;102683.66;5140164;27;45223;-63
2023/01/28 04:16:29;;;;;;;;;26.33;21.33;;;;;5.64;67.87;102686.22;5140559;27;45339;-63
2023/01/28 04:18:54;;;;;;;;;31.00;24.00;;;;;5.63;67.61;102683.56;5140450;27;45348;-63
2023/01/28 04:21:20;;;;;;;;;27.67;20.67;;;;;5.67;67.29;102688.06;5140185;27;46719;-63
2023/01/28 04:23:45;;;;;;;;;26.67;23.67;;;;;5.57;67.95;102679.91;5139873;27;45341;-63
2023/01/28 04:26:11;;;;;;;;;27.33;24.00;;;;;5.50;67.73;102664.03;5138500;27;45406;-63
2023/01/28 04:28:36;;;;;;;;;40.67;28.33;;;;;5.60;67.56;102681.75;5140374;27;45391;-63
2023/01/28 04:31:01;;;;;;;;;35.33;26.67;;;;;5.54;68.12;102685.06;5139881;27;46700;-63
2023/01/28 04:33:27;;;;;;;;;27.00;27.00;;;;;5.57;67.90;102694.72;5139954;27;45517;-63
2023/01/28 04:35:52;;;;;;;;;31.67;19.67;;;;;5.49;67.64;102680.53;5139964;27;45429;-63
2023/01/28 04:38:17;;;;;;;;;35.67;28.00;;;;;5.58;68.02;102696.50;5139920;27;45791;-63
2023/01/28 04:40:43;;;;;;;;;38.33;24.67;;;;;5.52;67.60;102684.16;5138242;27;46235;-63
2023/01/28 04:43:08;;;;;;;;;27.67;21.33;;;;;5.56;67.67;102699.06;5139841;27;45264;-63
2023/01/28 04:45:33;;;;;;;;;32.67;24.67;;;;;5.48;67.91;102677.06;5140001;27;45497;-63
2023/01/28 04:47:59;;;;;;;;;31.00;26.00;;;;;5.55;67.60;102692.06;5139910;27;45276;-63
2023/01/28 04:50:24;;;;;;;;;34.33;25.00;;;;;5.54;67.78;102695.50;5139498;27;46305;-63
2023/01/28 04:52:50;;;;;;;;;31.00;24.00;;;;;5.58;67.85;102706.97;5138055;27;45441;-63
2023/01/28 04:55:15;;;;;;;;;25.00;21.33;;;;;5.53;67.95;102688.53;5139514;27;45433;-63
2023/01/28 04:57:40;;;;;;;;;30.33;22.67;;;;;5.62;67.93;102694.84;5139960;27;45290;-63
2023/01/28 05:00:06;;;;;;;;;33.00;21.33;;;;;5.56;67.15;102682.50;5139359;27;45485;-63
2023/01/28 05:02:32;;;;;;;;;26.00;21.33;;;;;5.44;67.28;102661.25;5138059;27;45477;-63
2023/01/28 05:04:57;;;;;;;;;32.00;20.67;;;;;5.60;67.48;102693.94;5139489;27;45461;-63
2023/01/28 05:07:23;;;;;;;;;32.67;26.00;;;;;5.61;66.97;102693.09;5138145;27;45484;-63
2023/01/28 05:09:48;;;;;;;;;25.67;21.33;;;;;5.57;67.12;102690.38;5139260;27;46486;-63
2023/01/28 05:12:13;;;;;;;;;27.33;23.67;;;;;5.51;66.77;102679.75;5139201;27;45785;-63
2023/01/28 05:14:39;;;;;;;;;29.67;23.00;;;;;5.34;66.47;102653.13;5139405;27;45517;-63
2023/01/28 05:17:04;;;;;;;;;31.00;21.00;;;;;5.47;67.00;102680.50;5139747;27;45199;-63
2023/01/28 05:19:29;;;;;;;;;26.33;22.67;;;;;5.51;66.86;102684.97;5139178;27;45389;-63
2023/01/28 05:21:55;;;;;;;;;25.67;21.33;;;;;5.54;66.93;102690.28;5139275;27;45298;-63
2023/01/28 05:24:20;;;;;;;;;26.00;21.67;;;;;5.49;66.81;102686.66;5137412;27;45460;-63
2023/01/28 05:26:45;;;;;;;;;27.67;19.67;;;;;5.34;66.59;102666.19;5139410;27;45451;-63
2023/01/28 05:29:11;;;;;;;;;24.33;18.67;;;;;5.50;66.51;102690.16;5139134;27;46626;-63
2023/01/28 05:31:36;;;;;;;;;25.67;23.33;;;;;5.54;66.18;102699.88;5138830;27;45332;-63
2023/01/28 05:34:01;;;;;;;;;26.67;22.67;;;;;5.57;65.99;102708.66;5139295;27;45421;-63
2023/01/28 05:36:27;;;;;;;;;29.00;21.33;;;;;5.53;65.63;102692.84;5139330;27;45154;-63
2023/01/28 05:38:52;;;;;;;;;32.67;24.67;;;;;5.38;65.95;102683.72;5138787;27;46450;-63
2023/01/28 05:41:17;;;;;;;;;29.00;22.67;;;;;5.25;66.44;102654.59;5137312;27;45437;-63
2023/01/28 05:43:43;;;;;;;;;24.33;22.67;;;;;5.52;66.29;102702.44;5138996;27;45163;-63
2023/01/28 05:46:08;;;;;;;;;38.33;21.67;;;;;5.33;66.15;102674.88;5139319;27;45391;-63
2023/01/28 05:48:33;;;;;;;;;35.33;26.33;;;;;5.54;65.97;102705.09;5138882;27;46649;-63
2023/01/28 05:50:59;;;;;;;;;27.33;22.00;;;;;5.55;65.76;102707.75;5138920;27;45758;-63
2023/01/28 05:53:24;;;;;;;;;41.33;32.67;;;;;5.55;66.24;102718.19;5138674;27;45437;-63
2023/01/28 05:55:54;;;;;;;;;32.67;23.67;;;;;5.57;66.04;102719.13;5138916;27;45503;-63
2023/01/28 05:58:20;;;;;;;;;31.33;24.33;;;;;5.56;66.33;102712.16;5137520;27;46045;-63
2023/01/28 06:00:45;;;;;;;;;36.00;29.33;;;;;5.53;66.42;102708.53;5138574;27;45259;-63
2023/01/28 06:03:12;;;;;;;;;37.00;24.67;;;;;5.56;66.14;102713.84;5138632;27;45436;-63
2023/01/28 06:05:37;;;;;;;;;27.00;19.33;;;;;5.53;65.91;102714.66;5139061;27;45274;-63
2023/01/28 06:08:04;;;;;;;;;34.33;22.33;;;;;5.57;65.45;102726.09;5138333;27;45393;-63
2023/01/28 06:10:29;;;;;;;;;38.33;28.00;;;;;5.55;65.18;102723.44;5138267;27;45487;-63
2023/01/28 06:12:54;;;;;;;;;30.33;25.33;;;;;5.56;65.49;102730.44;5137814;27;45336;-63
2023/01/28 06:15:20;;;;;;;;;33.67;31.00;;;;;5.52;65.18;102723.34;5140960;27;45336;-63
2023/01/28 06:17:45;;;;;;;;;35.33;27.67;;;;;5.53;64.93;102713.75;5142223;27;45640;-63
2023/01/28 06:20:11;;;;;;;;;31.67;23.33;;;;;5.58;64.95;102722.63;5142183;27;45393;-63
2023/01/28 06:22:36;;;;;;;;;28.67;25.33;;;;;5.58;64.89;102718.28;5142413;27;45434;-63
2023/01/28 06:25:02;;;;;;;;;36.67;26.00;;;;;5.34;63.74;102683.59;5142270;27;45476;-63
2023/01/28 06:27:27;;;;;;;;;31.33;20.33;;;;;5.46;64.08;102706.56;5141879;27;46765;-63
2023/01/28 06:29:53;;;;;;;;;31.67;28.67;;;;;5.50;63.89;102718.91;5141972;27;45486;-63
2023/01/28 06:32:18;;;;;;;;;26.67;21.67;;;;;5.52;62.92;102712.88;5138887;27;45459;-63
2023/01/28 06:34:43;;;;;;;;;38.00;26.00;;;;;5.46;63.22;102711.81;5142343;27;45454;-63
2023/01/28 06:37:12;;;;;;;;;38.33;25.00;;;;;5.48;62.26;102705.78;5141722;27;47408;-63
2023/01/28 06:39:37;;;;;;;;;26.67;20.33;;;;;5.43;61.65;102715.19;5141608;27;45371;-63
2023/01/28 06:42:03;;;;;;;;;31.67;23.33;;;;;5.42;62.85;102710.84;5142026;27;45502;-63
2023/01/28 06:44:28;;;;;;;;;23.67;20.00;;;;;5.42;62.50;102710.84;5141946;27;45372;-63
2023/01/28 06:46:53;;;;;;;;;31.33;21.67;;;;;5.43;61.13;102698.66;5141752;27;46249;-63
2023/01/28 06:49:20;;;;;;;;;28.00;21.33;;;;;5.34;61.43;102702.75;5141588;27;45260;-63
2023/01/28 06:51:45;;;;;;;;;29.00;23.67;;;;;5.33;61.54;102710.53;5139650;27;45359;-63
2023/01/28 06:54:10;;;;;;;;;32.00;24.33;;;;;5.29;61.05;102700.88;5141871;27;45404;-63
2023/01/28 06:56:36;;;;;;;;;30.67;24.00;;;;;5.35;60.98;102725.44;5141270;27;47283;-63
2023/01/28 06:59:01;;;;;;;;;35.33;26.67;;;;;5.20;60.76;102720.63;5141500;27;45263;-63
2023/01/28 07:01:26;;;;;;;;;29.67;21.00;;;;;5.24;61.43;102729.44;5141478;27;45308;-63
2023/01/28 07:03:52;;;;;;;;;36.00;31.00;;;;;5.10;61.29;102707.22;5141857;27;45352;-63
2023/01/28 07:06:17;;;;;;;;;32.00;25.00;;;;;5.26;61.89;102734.69;5141358;27;45466;-63
2023/01/28 07:08:42;;;;;;;;;30.67;27.67;;;;;5.28;60.89;102731.28;5139729;27;45270;-63
2023/01/28 07:11:08;;;;;;;;;33.00;25.00;;;;;5.24;60.46;102729.44;5141198;27;45480;-63
2023/01/28 07:13:33;;;;;;;;;20.00;18.00;;;;;5.23;60.04;102723.31;5141471;27;45236;-63
2023/01/28 07:15:59;;;;;;;;;24.33;22.33;;;;;5.33;60.43;102740.19;5141226;27;47256;-63
2023/01/28 07:18:25;;;;;;;;;24.67;21.67;;;;;5.26;60.58;102725.16;5141221;27;45443;-63
2023/01/28 07:20:50;;;;;;;;;31.00;28.67;;;;;5.29;59.33;102737.44;5141172;27;45805;-63
2023/01/28 07:23:15;;;;;;;;;23.00;19.33;;;;;5.32;60.15;102734.91;5140040;27;45357;-63
2023/01/28 07:25:41;;;;;;;;;35.33;28.00;;;;;5.23;60.16;102725.94;5139416;27;46420;-63
2023/01/28 07:28:06;;;;;;;;;27.00;22.67;;;;;5.32;60.17;102740.13;5135743;27;45364;-63
2023/01/28 07:30:32;;;;;;;;;34.67;27.67;;;;;5.30;60.22;102731.34;5141115;27;45366;-63
2023/01/28 07:32:58;;;;;;;;;32.33;26.67;;;;;5.31;60.03;102744.44;5141139;27;45448;-63
2023/01/28 07:35:25;;;;;;;;;33.00;28.67;;;;;5.27;60.13;102745.22;5141129;27;45745;-63
2023/01/28 07:38:00;;;;;;;;;27.33;22.67;;;;;5.25;60.43;102735.56;5140744;27;45361;-63
2023/01/28 07:40:26;;;;;;;;;31.33;24.00;;;;;5.18;59.24;102734.47;5139905;27;45317;-63
2023/01/28 07:42:54;;;;;;;;;24.00;23.67;;;;;5.22;59.67;102747.66;5140908;27;45393;-63
2023/01/28 07:45:19;;;;;;;;;26.33;22.33;;;;;5.28;60.19;102748.72;5139028;27;45415;-63
2023/01/28 07:47:53;;;;;;;;;36.33;27.67;;;;;5.27;59.97;102746.91;5140523;27;45325;-63
2023/01/28 07:50:18;;;;;;;;;35.33;25.67;;;;;5.34;60.04;102752.38;5140746;27;45398;-63
2023/01/28 07:52:44;;;;;;;;;34.33;26.67;;;;;5.31;59.90;102744.44;5140688;27;45388;-63
2023/01/28 07:55:15;;;;;;;;;40.67;32.00;;;;;5.35;60.51;102753.28;5140475;27;46467;-63
2023/01/28 07:57:55;;;;;;;;;30.67;25.33;;;;;5.39;60.13;102763.00;5140333;27;45495;-63
2023/01/28 08:00:22;;;;;;;;;33.67;28.67;;;;;5.41;60.63;102763.91;5140548;27;45390;-63
2023/01/28 08:02:47;;;;;;;;;33.67;23.67;;;;;5.44;60.34;102761.41;5138656;27;45362;-63
2023/01/28 08:05:18;;;;;;;;;32.33;26.67;;;;;5.43;60.08;102761.34;5140408;27;45323;-63
2023/01/28 08:07:44;;;;;;;;;24.00;20.00;;;;;5.41;59.92;102761.31;5139378;27;45405;-63
2023/01/28 08:10:11;;;;;;;;;22.67;19.00;;;;;5.36;60.54;102747.22;5119320;27;45315;-63
2023/01/28 08:12:37;;;;;;;;;30.33;27.33;;;;;5.36;59.54;102755.06;5119588;27;45398;-63
2023/01/28 08:15:04;;;;;;;;;36.00;28.33;;;;;5.34;60.12;102757.59;5119202;27;45474;-63
2023/01/28 08:17:30;;;;;;;;;36.00;29.33;;;;;5.37;59.83;102760.34;5119383;27;45451;-63
2023/01/28 08:19:56;;;;;;;;;32.33;22.67;;;;;5.32;60.01;102751.47;5125805;27;45586;-63
2023/01/28 08:22:25;;;;;;;;;27.00;24.00;;;;;5.41;60.12;102762.19;5140123;27;45363;-63
2023/01/28 08:24:50;;;;;;;;;41.33;30.67;;;;;5.27;59.48;102726.03;5140008;27;45689;-63
2023/01/28 08:27:16;;;;;;;;;36.33;26.67;;;;;5.50;59.49;102751.13;5139829;27;45797;-63
2023/01/28 08:29:42;;;;;;;;;33.67;25.00;;;;;5.67;59.24;102766.44;5140134;27;45734;-64
2023/01/28 08:32:08;;;;;;;;;26.00;24.67;;;;;5.66;58.77;102762.06;5140117;27;45548;-63
2023/01/28 08:34:34;;;;;;;;;35.67;25.00;;;;;5.78;59.01;102766.75;5139710;27;46295;-64
2023/01/28 08:36:59;;;;;;;;;30.00;24.00;;;;;5.74;59.09;102761.44;5137907;27;45373;-63
2023/01/28 08:39:24;;;;;;;;;32.67;24.67;;;;;5.81;58.43;102772.97;5139975;27;45352;-63
2023/01/28 08:41:49;;;;;;;;;27.67;24.33;;;;;5.81;58.37;102764.22;5140002;27;45361;-63
2023/01/28 08:44:15;;;;;;;;;32.00;28.33;;;;;5.88;58.49;102785.41;5139689;27;46436;-63
2023/01/28 08:46:40;;;;;;;;;37.00;29.00;;;;;5.85;59.03;102772.25;5139179;27;45470;-64
2023/01/28 08:49:05;;;;;;;;;33.67;27.67;;;;;5.82;59.13;102777.34;5139829;27;45385;-63
2023/01/28 08:51:31;;;;;;;;;36.00;33.00;;;;;5.95;58.73;102793.41;5138393;27;45633;-63
2023/01/28 08:53:56;;;;;;;;;34.67;27.33;;;;;5.92;58.33;102788.97;5139539;27;46318;-64
2023/01/28 08:56:22;;;;;;;;;42.33;29.33;;;;;5.92;58.50;102799.44;5139355;27;45318;-64
2023/01/28 08:58:47;;;;;;;;;32.33;29.33;;;;;5.91;58.55;102805.50;5139589;27;45508;-63
2023/01/28 09:01:12;;;;;;;;;34.33;31.33;;;;;5.89;58.26;102800.22;5139955;27;45404;-63
2023/01/28 09:03:38;;;;;;;;;40.00;32.00;;;;;5.82;58.45;102790.41;5139379;27;45464;-63
2023/01/28 09:06:04;;;;;;;;;32.00;27.33;;;;;5.95;58.01;102807.34;5139612;27;45532;-64
2023/01/28 09:08:30;;;;;;;;;39.00;32.00;;;;;6.13;57.88;102814.00;5137862;27;45267;-64
2023/01/28 09:10:56;;;;;;;;;31.67;24.00;;;;;6.52;57.59;102824.75;5139331;27;45367;-63
2023/01/28 09:13:22;;;;;;;;;34.67;31.33;;;;;6.59;56.55;102812.69;5139074;27;45448;-63
2023/01/28 09:15:47;;;;;;;;;35.33;34.67;;;;;6.52;56.08;102805.50;5139302;27;45222;-63
2023/01/28 09:18:13;;;;;;;;;26.67;22.33;;;;;6.44;55.73;102807.94;5139313;27;45404;-64
2023/01/28 09:20:38;;;;;;;;;45.00;34.50;;;;;6.29;55.75;102792.69;5139435;27;45540;-64
2023/01/28 09:23:04;;;;;;;;;31.33;22.00;;;;;6.36;57.46;102817.28;5138986;27;45881;-63
2023/01/28 09:25:29;;;;;;;;;27.33;23.00;;;;;6.18;56.20;102781.03;5137818;27;45491;-64
2023/01/28 09:27:56;;;;;;;;;24.67;24.67;;;;;6.33;56.75;102802.41;5138947;27;45307;-63
2023/01/28 09:30:22;;;;;;;;;27.67;20.67;;;;;6.30;56.09;102791.84;5139382;27;45293;-64
2023/01/28 09:32:51;;;;;;;;;33.00;25.67;;;;;6.42;56.66;102810.50;5138661;27;46392;-64
2023/01/28 09:35:18;;;;;;;;;33.67;26.33;;;;;6.41;55.48;102800.88;5139007;27;45226;-64
2023/01/28 09:37:44;;;;;;;;;26.00;22.67;;;;;6.50;56.24;102812.44;5139139;27;45370;-63
2023/01/28 09:40:28;;;;;;;;;27.33;19.33;;;;;6.57;55.24;102819.63;5139161;27;45551;-63
2023/01/28 09:43:15;;;;;;;;;13.67;9.33;;;;;6.57;56.04;102817.00;5138587;27;45418;-63
2023/01/28 09:45:52;;;;;;;;;20.33;16.67;;;;;6.54;55.96;102823.03;5097527;27;45394;-64
2023/01/28 09:48:40;;;;;;;;;24.67;20.33;;;;;6.55;56.39;102821.28;5097616;27;45443;-63
2023/01/28 09:51:14;;;;;;;;;21.67;19.33;;;;;6.60;55.25;102828.44;5101198;27;45493;-63
2023/01/28 09:53:44;;;;;;;;;28.00;20.00;;;;;6.66;55.33;102832.94;5140246;27;46252;-63
2023/01/28 09:56:19;;;;;;;;;20.33;14.00;;;;;6.71;55.32;102833.06;5142261;27;45456;-63
2023/01/28 09:58:44;;;;;;;;;20.33;11.00;;;;;6.67;54.77;102818.16;5142408;27;45457;-63
2023/01/28 10:01:35;;;;;;;;;26.33;20.00;;;;;6.85;55.41;102825.59;5142649;27;45519;-63
2023/01/28 10:04:22;;;;;;;;;17.67;15.33;;;;;7.56;54.70;102823.00;5142465;27;45447;-64
2023/01/28 10:06:53;;;;;;;;;17.00;13.33;;;;;8.83;52.55;102826.53;5142157;27;45886;-64
2023/01/28 10:09:24;;;;;;;;;17.67;15.67;;;;;9.10;51.13;102835.75;5101106;27;45390;-64
2023/01/28 10:12:03;;;;;;;;;16.00;13.00;;;;;8.89;50.95;102825.75;5100968;27;45319;-63
2023/01/28 10:14:40;;;;;;;;;17.33;16.33;;;;;8.71;50.17;102827.19;5126140;27;46606;-64
2023/01/28 10:17:21;;;;;;;;;20.67;17.00;;;;;8.67;50.94;102830.59;5134557;27;45533;-64
2023/01/28 10:19:55;;;;;;;;;13.67;11.00;;;;;8.57;51.21;102827.75;5140316;27;45339;-65
2023/01/28 10:22:38;;;;;;;;;21.33;12.00;;;;;8.43;51.62;102824.84;5142178;27;45349;-64
2023/01/28 10:25:16;;;;;;;;;20.00;20.00;;;;;8.51;52.07;102841.66;5141859;27;46375;-64
2023/01/28 10:27:42;;;;;;;;;12.67;11.00;;;;;8.31;50.54;102826.38;5141787;27;45490;-63
2023/01/28 10:30:23;;;;;;;;;17.00;11.67;;;;;8.29;51.37;102835.97;5142061;27;45392;-64
2023/01/28 10:32:51;;;;;;;;;18.00;15.67;;;;;8.26;50.72;102838.50;5139325;27;45239;-64
2023/01/28 10:35:16;;;;;;;;;12.67;11.33;;;;;8.25;51.65;102835.84;5141736;27;47571;-64
2023/01/28 10:37:42;;;;;;;;;18.67;15.67;;;;;8.34;51.71;102836.06;5138302;27;45483;-64
2023/01/28 10:40:16;;;;;;;;;14.00;13.00;;;;;8.52;50.74;102838.19;5139174;27;45453;-64
2023/01/28 10:42:42;;;;;;;;;18.67;15.33;;;;;8.53;49.75;102842.59;5141823;27;45324;-64
2023/01/28 10:45:28;;;;;;;;;16.67;14.00;;;;;8.49;51.26;102848.63;5141689;27;46180;-64
2023/01/28 10:48:07;;;;;;;;;9.67;9.67;;;;;8.43;50.54;102837.97;5139369;27;45409;-64
2023/01/28 10:50:34;;;;;;;;;19.00;14.33;;;;;8.46;50.41;102849.44;5141791;27;45247;-64
2023/01/28 10:53:03;;;;;;;;;18.33;16.67;;;;;8.50;50.19;102840.78;5139732;27;45353;-64
2023/01/28 10:55:33;;;;;;;;;16.33;14.00;;;;;8.48;49.97;102842.50;5141232;27;47172;-64
2023/01/28 10:58:01;;;;;;;;;21.00;20.67;;;;;8.31;50.74;102825.50;5139955;27;45216;-64
2023/01/28 11:00:32;;;;;;;;;19.00;18.00;;;;;8.31;51.85;102838.63;5141240;27;45464;-64
2023/01/28 11:02:58;;;;;;;;;15.67;14.00;;;;;8.32;51.48;102843.91;5141555;27;45401;-64
2023/01/28 11:05:29;;;;;;;;;23.00;18.33;;;;;8.28;50.99;102842.06;5138026;27;45442;-64
2023/01/28 11:08:15;;;;;;;;;20.33;19.00;;;;;8.24;51.80;102839.34;5141184;27;45386;-64
2023/01/28 11:10:41;;;;;;;;;24.67;18.67;;;;;8.22;51.01;102835.78;5141173;27;45496;-64
2023/01/28 11:13:20;;;;;;;;;23.00;18.00;;;;;8.15;50.81;102845.28;5141313;27;45250;-64
2023/01/28 11:15:53;;;;;;;;;20.33;19.00;;;;;8.11;51.36;102844.31;5141138;27;45379;-64
2023/01/28 11:18:25;;;;;;;;;22.67;19.67;;;;;8.08;51.90;102843.38;5141062;27;45426;-63
2023/01/28 11:21:00;;;;;;;;;22.33;18.33;;;;;7.93;51.52;102825.53;5139547;27;45535;-63
2023/01/28 11:23:29;;;;;;;;;20.67;17.00;;;;;8.02;51.97;102841.50;5141308;27;45243;-63
2023/01/28 11:26:01;;;;;;;;;17.33;17.00;;;;;8.02;52.02;102842.38;5141065;27;46584;-64
2023/01/28 11:28:27;;;;;;;;;22.33;19.00;;;;;7.95;51.78;102822.13;5140754;27;45273;-64
2023/01/28 11:30:56;;;;;;;;;22.00;21.00;;;;;8.07;51.65;102834.59;5140959;27;45177;-64
2023/01/28 11:33:26;;;;;;;;;19.33;18.33;;;;;8.03;51.73;102827.56;5141328;27;45419;-64
2023/01/28 11:35:56;;;;;;;;;22.67;18.00;;;;;8.01;51.51;102817.00;5140733;27;45387;-63
2023/01/28 11:38:24;;;;;;;;;23.33;18.67;;;;;7.99;52.02;102818.72;5139247;27;45329;-63
2023/01/28 11:40:53;;;;;;;;;26.67;19.33;;;;;7.97;51.05;102820.44;5140910;27;45337;-63
2023/01/28 11:43:24;;;;;;;;;25.00;20.33;;;;;8.04;51.78;102810.94;5140905;27;45425;-63
2023/01/28 11:46:12;;;;;;;;;23.33;21.00;;;;;8.13;51.79;102803.28;5140541;27;47110;-63
2023/01/28 11:49:08;;;;;;;;;26.67;20.33;;;;;8.08;51.92;102796.16;5140762;27;45308;-63
2023/01/28 11:51:48;;;;;;;;;18.67;17.67;;;;;8.19;51.89;102789.38;5140653;27;45398;-63
2023/01/28 11:54:44;;;;;;;;;19.67;16.67;;;;;8.23;50.91;102790.31;5140867;27;45417;-63
2023/01/28 11:57:30;;;;;;;;;21.00;16.00;;;;;8.23;51.67;102792.94;5138948;27;46054;-64
2023/01/28 11:59:56;;;;;;;;;31.00;19.67;;;;;8.25;51.64;102785.97;5140361;27;45421;-63